Time;durP1;ratioP1;P1;durP2;ratioP2;P2;SDS_P1;SDS_P2;PMS_P1;PMS_P2;Temp;Humidity;BMP_temperature;BMP_pressure;BME280_temperature;BME280_humidity;BME280_pressure;Samples;Min_cycle;Max_cycle;Signal;HPM_P1;HPM_P2
2023/01/09 04:01:21;;;;;;;2.90;0.70;;;8.30;91.90;;;;;;5755119;23;20531;-67
2023/01/09 04:03:47;;;;;;;1.70;0.80;;;8.10;92.30;;;;;;4993869;28;20485;-67
2023/01/09 04:06:14;;;;;;;1.50;0.70;;;8.00;92.60;;;;;;4993852;28;20441;-67
2023/01/09 04:08:41;;;;;;;1.60;0.63;;;7.90;93.40;;;;;;4993848;28;20450;-67
2023/01/09 04:11:07;;;;;;;1.80;0.80;;;8.00;93.50;;;;;;4993777;28;20524;-67
2023/01/09 04:13:34;;;;;;;1.50;0.60;;;8.00;93.20;;;;;;4994396;28;20445;-67
2023/01/09 04:16:00;;;;;;;1.40;0.60;;;8.10;93.10;;;;;;4993741;28;20453;-67
2023/01/09 04:18:28;;;;;;;1.70;0.70;;;8.00;92.00;;;;;;4993723;28;20449;-67
2023/01/09 04:20:55;;;;;;;1.50;0.60;;;7.80;89.70;;;;;;4993645;28;20520;-67
2023/01/09 04:23:22;;;;;;;1.40;0.60;;;7.70;88.30;;;;;;4993662;28;20481;-68
2023/01/09 04:25:48;;;;;;;1.50;0.60;;;7.70;86.70;;;;;;4993685;28;20445;-67
2023/01/09 04:28:15;;;;;;;1.40;0.60;;;7.60;87.00;;;;;;4993682;28;20456;-67
2023/01/09 04:30:42;;;;;;;1.40;0.63;;;7.60;86.50;;;;;;4993552;28;20520;-68
2023/01/09 04:33:08;;;;;;;1.40;0.50;;;7.50;86.60;;;;;;4993664;28;20446;-68
2023/01/09 04:35:36;;;;;;;1.40;0.50;;;7.40;86.90;;;;;;4993622;28;20476;-67
2023/01/09 04:38:03;;;;;;;1.40;0.50;;;7.40;86.90;;;;;;4993587;28;20446;-67
2023/01/09 04:40:30;;;;;;;1.40;0.60;;;7.40;87.00;;;;;;4993177;28;20958;-67
2023/01/09 04:42:56;;;;;;;1.80;0.60;;;7.40;87.00;;;;;;4993458;28;20480;-67
2023/01/09 04:45:23;;;;;;;1.40;0.60;;;7.40;87.30;;;;;;4993499;28;20470;-67
2023/01/09 04:47:50;;;;;;;1.50;0.60;;;7.40;87.00;;;;;;4993518;28;20449;-67
2023/01/09 04:50:16;;;;;;;1.40;0.60;;;7.40;87.10;;;;;;4993505;28;20445;-67
2023/01/09 04:52:45;;;;;;;1.40;0.60;;;7.40;86.40;;;;;;4993401;28;20527;-67
2023/01/09 04:55:11;;;;;;;1.40;0.60;;;7.40;86.60;;;;;;4996593;28;20518;-68
2023/01/09 04:57:38;;;;;;;1.40;0.60;;;7.40;86.70;;;;;;4997087;28;20468;-67
2023/01/09 05:00:08;;;;;;;2.03;0.60;;;7.30;86.80;;;;;;4997137;28;20503;-67
2023/01/09 05:02:35;;;;;;;1.50;0.60;;;7.40;87.30;;;;;;4996484;28;20591;-68
2023/01/09 05:05:02;;;;;;;1.80;0.70;;;7.30;87.00;;;;;;4996645;28;20860;-68
2023/01/09 05:07:29;;;;;;;1.50;0.60;;;7.30;87.50;;;;;;4996889;28;20449;-67
2023/01/09 05:09:57;;;;;;;2.47;0.83;;;7.30;88.00;;;;;;4996846;28;20501;-67
2023/01/09 05:12:23;;;;;;;1.50;0.60;;;7.40;87.60;;;;;;4996734;28;20707;-67
2023/01/09 05:14:50;;;;;;;1.40;0.60;;;7.30;86.70;;;;;;4996784;28;20460;-68
2023/01/09 05:17:16;;;;;;;1.70;0.60;;;7.10;86.60;;;;;;4996710;28;20446;-68
2023/01/09 05:19:45;;;;;;;1.70;0.70;;;7.10;87.30;;;;;;4996685;28;20456;-68
2023/01/09 05:22:11;;;;;;;2.37;0.70;;;7.20;87.50;;;;;;4996148;28;21064;-68
2023/01/09 05:24:38;;;;;;;1.50;0.60;;;7.10;87.00;;;;;;4996507;28;20446;-68
2023/01/09 05:27:06;;;;;;;1.50;0.50;;;7.10;87.00;;;;;;4996828;28;20449;-68
2023/01/09 05:29:33;;;;;;;1.50;0.63;;;7.00;86.90;;;;;;4996479;28;20450;-68
2023/01/09 05:31:59;;;;;;;1.50;0.70;;;7.00;87.10;;;;;;4996092;28;20473;-68
2023/01/09 05:34:26;;;;;;;1.60;0.60;;;6.80;87.20;;;;;;4996441;28;20477;-67
2023/01/09 05:36:53;;;;;;;1.50;0.60;;;6.80;87.70;;;;;;4996376;28;20515;-68
2023/01/09 05:39:19;;;;;;;1.40;0.60;;;6.70;86.80;;;;;;4996344;28;20453;-68
2023/01/09 05:41:46;;;;;;;1.47;0.60;;;6.60;87.30;;;;;;4995911;28;20525;-68
2023/01/09 05:44:14;;;;;;;1.67;0.60;;;6.50;87.40;;;;;;4995902;28;20481;-68
2023/01/09 05:46:41;;;;;;;1.50;0.70;;;6.30;87.50;;;;;;4996217;28;20496;-68
2023/01/09 05:49:07;;;;;;;1.90;0.70;;;6.10;87.80;;;;;;4996118;28;20508;-68
2023/01/09 05:51:34;;;;;;;2.10;0.60;;;6.20;88.20;;;;;;4996018;28;20662;-67
2023/01/09 05:54:01;;;;;;;1.43;0.53;;;6.20;87.90;;;;;;4996077;28;20458;-67
2023/01/09 05:56:28;;;;;;;1.70;0.70;;;6.20;88.30;;;;;;4996017;28;20509;-68
2023/01/09 05:58:55;;;;;;;1.40;0.60;;;6.30;88.10;;;;;;4996006;28;20519;-68
2023/01/09 06:01:23;;;;;;;1.50;0.60;;;6.30;87.70;;;;;;4995581;28;20520;-68
2023/01/09 06:03:50;;;;;;;1.40;0.50;;;6.30;87.90;;;;;;4995581;28;20481;-68
2023/01/09 06:06:16;;;;;;;1.43;0.60;;;6.40;87.40;;;;;;4994590;28;20810;-68
2023/01/09 06:08:43;;;;;;;1.40;0.60;;;6.40;87.00;;;;;;4995842;28;20468;-69
2023/01/09 06:11:10;;;;;;;1.47;0.60;;;6.40;87.10;;;;;;4995690;28;20469;-68
2023/01/09 06:13:36;;;;;;;2.20;0.87;;;6.20;87.30;;;;;;4995696;28;20860;-68
2023/01/09 06:16:03;;;;;;;1.50;0.70;;;6.20;88.00;;;;;;4995326;28;20950;-68
2023/01/09 06:18:31;;;;;;;1.70;0.90;;;6.20;87.80;;;;;;4995296;28;20480;-68
2023/01/09 06:20:58;;;;;;;1.50;0.70;;;6.20;88.00;;;;;;4995502;28;20469;-68
2023/01/09 06:23:24;;;;;;;1.60;0.70;;;6.10;87.90;;;;;;4995456;28;20558;-68
2023/01/09 06:25:51;;;;;;;1.97;0.80;;;6.10;87.80;;;;;;4995408;28;20503;-68
2023/01/09 06:28:18;;;;;;;1.70;0.70;;;6.10;87.40;;;;;;4995387;28;20829;-68
2023/01/09 06:30:44;;;;;;;1.50;0.70;;;6.10;86.90;;;;;;4994935;28;20871;-68
2023/01/09 06:33:11;;;;;;;1.77;0.67;;;6.10;87.00;;;;;;4995274;28;20499;-71
2023/01/09 06:35:39;;;;;;;2.00;0.87;;;6.10;87.10;;;;;;4995262;28;20450;-68
2023/01/09 06:38:06;;;;;;;1.70;0.77;;;6.00;87.10;;;;;;4994878;28;20500;-69
2023/01/09 06:40:33;;;;;;;1.90;0.80;;;6.10;87.40;;;;;;4995077;28;20477;-67
2023/01/09 06:42:59;;;;;;;1.70;0.60;;;6.20;86.50;;;;;;4994936;28;20481;-68
2023/01/09 06:45:26;;;;;;;2.37;1.20;;;6.20;85.90;;;;;;4994644;28;20876;-68
2023/01/09 06:47:52;;;;;;;1.50;0.70;;;6.20;86.00;;;;;;4994770;28;20955;-68
2023/01/09 06:50:19;;;;;;;1.80;0.80;;;6.20;85.70;;;;;;4994685;28;20943;-68
2023/01/09 06:52:47;;;;;;;1.90;0.80;;;6.20;86.20;;;;;;4994932;28;20478;-69
2023/01/09 06:55:15;;;;;;;1.97;0.80;;;6.30;85.90;;;;;;4994878;28;20449;-67
2023/01/09 06:57:42;;;;;;;1.80;0.90;;;6.30;85.50;;;;;;4994833;28;20825;-68
2023/01/09 07:00:10;;;;;;;1.50;0.70;;;6.30;85.60;;;;;;4994734;28;20453;-68
2023/01/09 07:02:37;;;;;;;1.90;1.07;;;6.40;85.60;;;;;;4994467;28;20485;-68
2023/01/09 07:05:06;;;;;;;2.00;0.80;;;6.60;85.40;;;;;;4994402;28;20831;-69
2023/01/09 07:07:33;;;;;;;1.60;0.80;;;6.70;84.80;;;;;;4994309;28;20838;-67
2023/01/09 07:10:01;;;;;;;3.93;1.03;;;6.80;84.00;;;;;;4994315;28;20849;-68
2023/01/09 07:12:28;;;;;;;2.13;0.77;;;6.70;84.50;;;;;;4994456;28;20477;-68
2023/01/09 07:14:54;;;;;;;1.90;1.03;;;6.60;84.50;;;;;;4994544;28;20450;-68
2023/01/09 07:17:21;;;;;;;2.20;0.87;;;6.50;85.20;;;;;;4994286;28;20453;-68
2023/01/09 07:19:48;;;;;;;1.87;0.93;;;6.50;84.90;;;;;;4994431;28;20459;-67
2023/01/09 07:22:14;;;;;;;3.17;1.10;;;6.60;84.90;;;;;;4994437;28;20527;-67
2023/01/09 07:24:43;;;;;;;2.87;0.93;;;6.50;84.80;;;;;;4994279;28;20485;-68
2023/01/09 07:27:11;;;;;;;1.60;0.70;;;6.60;84.90;;;;;;4994391;28;20485;-68
2023/01/09 07:29:37;;;;;;;1.93;1.27;;;6.60;84.80;;;;;;4994167;28;20846;-69
2023/01/09 07:32:04;;;;;;;2.07;1.00;;;6.60;84.60;;;;;;4994167;28;20539;-68
2023/01/09 07:34:31;;;;;;;2.77;1.30;;;6.50;84.70;;;;;;4994229;28;20445;-69
2023/01/09 07:36:58;;;;;;;2.20;0.70;;;6.60;85.40;;;;;;4994360;28;20536;-69
2023/01/09 07:39:24;;;;;;;1.70;0.70;;;6.70;85.00;;;;;;4993733;28;20869;-69
2023/01/09 07:41:51;;;;;;;1.70;0.70;;;6.70;84.90;;;;;;4999547;28;21065;-68
2023/01/09 07:44:19;;;;;;;1.57;0.70;;;6.60;84.50;;;;;;5001267;28;20904;-68
2023/01/09 07:46:46;;;;;;;1.80;0.77;;;6.50;86.10;;;;;;4994245;28;20516;-68
2023/01/09 07:49:12;;;;;;;1.70;0.90;;;6.50;85.90;;;;;;4994123;28;20449;-68
2023/01/09 07:51:41;;;;;;;2.37;0.80;;;6.40;86.10;;;;;;4993973;28;20473;-68
2023/01/09 07:54:08;;;;;;;1.90;0.90;;;6.30;86.40;;;;;;4994003;28;20480;-68
2023/01/09 07:56:35;;;;;;;2.20;1.00;;;6.30;86.40;;;;;;4993986;28;20848;-69
2023/01/09 07:59:02;;;;;;;2.47;0.90;;;6.40;86.40;;;;;;4994378;28;20540;-68
2023/01/09 08:01:30;;;;;;;1.70;0.90;;;6.50;86.90;;;;;;4993556;28;20496;-68
2023/01/09 08:03:57;;;;;;;2.07;0.90;;;6.70;86.00;;;;;;4993501;28;21072;-69
2023/01/09 08:06:23;;;;;;;1.60;0.80;;;6.50;85.60;;;;;;4993874;28;20864;-68
2023/01/09 08:08:50;;;;;;;2.57;1.10;;;6.40;85.70;;;;;;4993858;28;20527;-68
2023/01/09 08:11:17;;;;;;;2.53;1.20;;;6.30;85.80;;;;;;4993709;28;20856;-69
2023/01/09 08:13:43;;;;;;;2.23;1.10;;;6.40;86.20;;;;;;4993799;28;20472;-68
2023/01/09 08:16:10;;;;;;;2.60;1.10;;;6.40;85.90;;;;;;4993408;28;20950;-69
2023/01/09 08:18:38;;;;;;;1.70;0.73;;;6.50;86.00;;;;;;4993480;28;21005;-69
2023/01/09 08:21:05;;;;;;;2.67;1.00;;;6.70;84.80;;;;;;4993685;28;21033;-68
2023/01/09 08:23:31;;;;;;;3.20;1.00;;;6.80;84.30;;;;;;4993496;28;20535;-68
2023/01/09 08:25:58;;;;;;;3.97;0.80;;;6.70;83.90;;;;;;4993737;28;20448;-69
2023/01/09 08:28:25;;;;;;;3.70;1.00;;;6.70;84.70;;;;;;4994116;28;20445;-68
2023/01/09 08:30:51;;;;;;;2.67;1.43;;;6.80;84.90;;;;;;4997163;28;21056;-69
2023/01/09 08:33:18;;;;;;;3.27;1.40;;;6.90;85.00;;;;;;4997529;28;20882;-69
2023/01/09 08:35:46;;;;;;;2.30;1.20;;;6.90;84.90;;;;;;4997494;28;20453;-68
2023/01/09 08:38:13;;;;;;;1.87;1.00;;;7.10;85.00;;;;;;4997419;28;20499;-69
2023/01/09 08:40:39;;;;;;;1.63;0.80;;;7.00;84.00;;;;;;4996959;28;20816;-69
2023/01/09 08:48:34;;;;;;;2.10;1.20;;;6.60;84.80;;;;;;4997306;28;20529;-68
2023/01/09 08:51:02;;;;;;;2.17;0.87;;;6.50;84.90;;;;;;4997000;28;20531;-69
2023/01/09 08:53:30;;;;;;;1.80;0.90;;;6.30;85.20;;;;;;4997073;28;20452;-69
2023/01/09 08:55:56;;;;;;;1.70;0.90;;;6.40;85.80;;;;;;4997048;28;20453;-69
2023/01/09 08:58:23;;;;;;;1.90;0.97;;;6.50;84.30;;;;;;4997060;28;20495;-69
2023/01/09 09:00:50;;;;;;;3.10;1.00;;;6.60;84.20;;;;;;4996722;28;20468;-68
2023/01/09 09:03:17;;;;;;;2.90;1.00;;;6.60;83.40;;;;;;4996910;28;20436;-69
2023/01/09 09:05:43;;;;;;;1.90;0.83;;;6.90;83.20;;;;;;4996617;28;20539;-69
2023/01/09 09:08:11;;;;;;;1.90;0.93;;;7.10;82.80;;;;;;4996886;28;20449;-69
2023/01/09 09:10:38;;;;;;;1.70;0.70;;;7.60;83.00;;;;;;4996718;28;20452;-69
2023/01/09 09:13:05;;;;;;;2.13;1.00;;;7.80;80.80;;;;;;4996736;28;20440;-68
2023/01/09 09:15:33;;;;;;;1.80;0.80;;;7.90;80.50;;;;;;4996681;28;20441;-69
2023/01/09 09:18:01;;;;;;;3.40;1.20;;;7.70;79.90;;;;;;4996285;28;20449;-69
2023/01/09 09:20:30;;;;;;;1.70;0.93;;;7.50;82.40;;;;;;4996535;28;20445;-69
2023/01/09 09:22:57;;;;;;;2.90;1.10;;;7.50;81.60;;;;;;4996249;28;20947;-69
2023/01/09 09:25:25;;;;;;;2.37;0.90;;;7.50;81.30;;;;;;4996402;28;20535;-69
2023/01/09 09:27:54;;;;;;;1.80;0.93;;;7.50;81.00;;;;;;4996505;28;20456;-69
2023/01/09 09:30:21;;;;;;;3.70;1.00;;;7.30;81.50;;;;;;4996126;28;20905;-69
2023/01/09 09:32:49;;;;;;;3.07;0.80;;;7.30;81.60;;;;;;4996132;28;20939;-69
2023/01/09 09:35:17;;;;;;;3.63;1.13;;;7.40;81.40;;;;;;4996412;28;20541;-69
2023/01/09 09:37:52;;;;;;;2.87;1.13;;;7.40;81.80;;;;;;4996753;28;20541;-69
2023/01/09 09:40:26;;;;;;;1.90;0.83;;;7.30;81.60;;;;;;4996393;28;20433;-68
2023/01/09 09:46:01;;;;;;;2.17;0.80;;;7.40;82.10;;;;;;4996046;28;20474;-69
2023/01/09 09:48:36;;;;;;;1.60;0.80;;;7.40;81.70;;;;;;4996279;28;20425;-68
2023/01/09 09:51:38;;;;;;;1.83;0.97;;;7.40;82.20;;;;;;4995886;28;21031;-69
2023/01/09 09:54:10;;;;;;;1.73;0.80;;;7.50;82.00;;;;;;4973784;28;20445;-69
2023/01/09 09:56:43;;;;;;;2.73;1.07;;;7.60;81.60;;;;;;4996038;28;20430;-69
2023/01/09 09:59:17;;;;;;;3.40;2.50;;;7.50;82.00;;;;;;4995740;28;20933;-68
2023/01/09 10:01:51;;;;;;;2.20;0.97;;;7.40;82.00;;;;;;4995581;28;20543;-69
2023/01/09 10:04:20;;;;;;;3.10;1.00;;;7.40;82.10;;;;;;4995833;28;20523;-68
2023/01/09 10:06:50;;;;;;;1.73;0.97;;;7.50;82.60;;;;;;4995890;28;20445;-69
2023/01/09 10:09:25;;;;;;;3.20;1.07;;;7.40;82.20;;;;;;4995806;28;20484;-68
2023/01/09 10:11:59;;;;;;;1.90;1.03;;;7.40;82.60;;;;;;4995731;28;20473;-69
2023/01/09 10:14:27;;;;;;;2.83;1.00;;;7.50;82.50;;;;;;5019211;23;20505;-73
2023/01/09 10:17:18;;;;;;;2.27;0.90;;;7.50;83.20;;;;;;4995231;28;20453;-77
2023/01/09 10:20:20;;;;;;;2.80;0.90;;;7.50;82.30;;;;;;4995900;28;20520;-74
2023/01/09 10:22:53;;;;;;;2.23;0.90;;;7.40;82.10;;;;;;4995007;28;20449;-75
2023/01/09 10:25:27;;;;;;;1.70;0.90;;;7.30;82.60;;;;;;4975348;28;20836;-75
2023/01/09 10:28:06;;;;;;;4.00;1.13;;;7.40;82.20;;;;;;4975564;28;20445;-74
2023/01/09 10:30:40;;;;;;;4.10;1.23;;;7.50;82.80;;;;;;4975700;28;20445;-75
2023/01/09 10:33:23;;;;;;;2.00;1.37;;;7.40;82.20;;;;;;4975329;28;20434;-74
2023/01/09 10:36:24;;;;;;;1.90;1.00;;;7.60;82.30;;;;;;4975441;28;20474;-75
2023/01/09 10:38:55;;;;;;;3.00;1.10;;;7.70;81.80;;;;;;4975042;28;20443;-75
2023/01/09 10:41:25;;;;;;;2.00;1.00;;;7.60;81.10;;;;;;4975203;28;20442;-74
2023/01/09 10:43:58;;;;;;;2.23;0.90;;;7.50;81.70;;;;;;4974689;28;20465;-74
2023/01/09 10:46:30;;;;;;;3.20;1.20;;;7.40;82.70;;;;;;4974890;28;20434;-75
2023/01/09 10:49:01;;;;;;;1.83;0.80;;;7.50;82.70;;;;;;4975100;28;20441;-75
2023/01/09 10:51:34;;;;;;;4.37;1.37;;;7.40;82.70;;;;;;4974577;28;20466;-75
2023/01/09 10:54:01;;;;;;;1.83;1.00;;;7.40;83.00;;;;;;4975003;28;20525;-75
2023/01/09 10:56:33;;;;;;;3.47;1.00;;;7.50;83.60;;;;;;4975005;28;20461;-75
2023/01/09 10:59:01;;;;;;;3.20;1.20;;;7.70;84.10;;;;;;4974991;28;20430;-74
2023/01/09 11:01:32;;;;;;;3.20;1.00;;;7.70;82.10;;;;;;4974824;28;20457;-74
2023/01/09 11:04:00;;;;;;;2.50;1.13;;;7.60;83.10;;;;;;4974655;28;20470;-75
2023/01/09 11:06:45;;;;;;;2.73;1.20;;;7.80;83.00;;;;;;4974695;28;20454;-75
2023/01/09 11:09:13;;;;;;;4.57;1.00;;;7.80;82.10;;;;;;4974858;28;20439;-75
2023/01/09 11:11:41;;;;;;;2.13;1.10;;;7.80;82.70;;;;;;4974429;28;20509;-74
2023/01/09 11:14:14;;;;;;;2.23;1.20;;;7.80;82.40;;;;;;4974351;28;20553;-75
2023/01/09 11:16:53;;;;;;;3.30;1.53;;;7.90;81.70;;;;;;4974483;28;20983;-75
2023/01/09 11:19:20;;;;;;;2.40;1.00;;;7.90;81.50;;;;;;4974808;28;20442;-75
2023/01/09 11:21:47;;;;;;;3.70;1.40;;;7.80;81.40;;;;;;4974657;28;20454;-76
2023/01/09 11:24:27;;;;;;;2.40;1.10;;;7.80;82.30;;;;;;4974387;28;20470;-75
2023/01/09 11:27:22;;;;;;;2.20;1.40;;;7.90;81.40;;;;;;4976926;28;20470;-79
2023/01/09 11:30:05;;;;;;;2.50;1.20;;;8.00;81.80;;;;;;4974603;28;20505;-76
2023/01/09 11:32:35;;;;;;;2.00;1.20;;;8.10;81.60;;;;;;4974483;28;20437;-75
2023/01/09 11:35:05;;;;;;;3.73;1.23;;;8.20;80.00;;;;;;4974314;28;20467;-75
2023/01/09 11:37:33;;;;;;;3.73;1.53;;;8.30;80.00;;;;;;4974283;28;20453;-75
2023/01/09 11:40:01;;;;;;;3.20;1.00;;;8.40;80.00;;;;;;4974298;28;20456;-75
2023/01/09 11:45:16;;;;;;;1.80;0.80;;;8.70;79.00;;;;;;4973632;28;20540;-76
2023/01/09 11:47:44;;;;;;;3.90;1.10;;;8.90;78.20;;;;;;4974385;28;20453;-76
2023/01/09 11:50:19;;;;;;;2.07;1.07;;;8.90;76.90;;;;;;4974315;28;20862;-76
2023/01/09 11:52:46;;;;;;;3.10;1.63;;;8.90;78.70;;;;;;4974304;28;20460;-75
2023/01/09 11:55:17;;;;;;;3.40;1.00;;;8.80;77.30;;;;;;4974159;28;20887;-75
2023/01/09 11:57:44;;;;;;;2.47;1.20;;;8.90;77.90;;;;;;4974254;28;20802;-76
2023/01/09 12:00:30;;;;;;;4.53;1.63;;;8.80;77.50;;;;;;4974424;28;20517;-76
2023/01/09 12:03:10;;;;;;;2.30;1.30;;;8.90;77.10;;;;;;4974774;28;20434;-76
2023/01/09 12:05:43;;;;;;;1.70;0.87;;;8.80;77.60;;;;;;4975194;28;20817;-76
2023/01/09 12:08:23;;;;;;;2.57;1.03;;;9.10;78.60;;;;;;4974338;28;20525;-75
2023/01/09 12:11:06;;;;;;;2.03;0.90;;;9.00;75.60;;;;;;4974104;28;20435;-75
2023/01/09 12:14:04;;;;;;;2.87;0.90;;;9.00;77.60;;;;;;4974715;28;20540;-74
2023/01/09 12:16:37;;;;;;;2.10;0.90;;;9.00;76.70;;;;;;4949048;28;20865;-74
2023/01/09 12:19:19;;;;;;;2.20;1.00;;;8.90;76.80;;;;;;4975183;28;20439;-75
2023/01/09 12:21:56;;;;;;;2.67;1.13;;;8.80;77.40;;;;;;4974423;28;20434;-75
2023/01/09 12:24:52;;;;;;;3.60;0.97;;;8.90;77.20;;;;;;4974206;28;20470;-75
2023/01/09 12:27:31;;;;;;;2.47;1.47;;;9.20;78.20;;;;;;4974167;28;20435;-74
2023/01/09 12:30:30;;;;;;;4.27;1.30;;;8.90;76.60;;;;;;4973803;28;20445;-74
2023/01/09 12:33:10;;;;;;;1.70;0.80;;;8.90;77.20;;;;;;4968846;28;20868;-75
2023/01/09 12:35:43;;;;;;;2.90;1.43;;;8.90;78.00;;;;;;4974021;28;20422;-74
2023/01/09 12:38:25;;;;;;;3.13;1.27;;;8.90;78.20;;;;;;4974175;28;20431;-77
2023/01/09 12:41:14;;;;;;;4.60;1.30;;;8.90;77.60;;;;;;4974138;28;20497;-75
2023/01/09 12:43:54;;;;;;;2.43;1.00;;;8.90;77.90;;;;;;4973953;28;20473;-76
2023/01/09 12:46:22;;;;;;;1.70;1.00;;;8.80;79.10;;;;;;4973592;28;20470;-75
2023/01/09 12:49:06;;;;;;;2.37;1.10;;;8.90;79.50;;;;;;4973913;28;20454;-74
2023/01/09 12:51:39;;;;;;;3.00;1.10;;;9.00;77.00;;;;;;4973899;28;20431;-75
2023/01/09 12:54:12;;;;;;;3.00;1.00;;;9.00;78.70;;;;;;4973909;28;20533;-74
2023/01/09 12:56:43;;;;;;;2.73;0.90;;;9.10;78.10;;;;;;4973820;28;20485;-75
2023/01/09 12:59:28;;;;;;;1.70;0.80;;;9.20;77.60;;;;;;4973815;28;20435;-75
2023/01/09 13:02:03;;;;;;;2.30;1.00;;;9.30;78.00;;;;;;4973801;28;20445;-75
2023/01/09 13:04:34;;;;;;;2.57;1.10;;;9.40;76.70;;;;;;4973762;28;20560;-75
2023/01/09 13:07:06;;;;;;;2.33;0.90;;;9.50;77.30;;;;;;4974113;28;20466;-74
2023/01/09 13:09:41;;;;;;;2.70;1.10;;;9.40;76.40;;;;;;4974584;28;20434;-75
2023/01/09 13:12:12;;;;;;;2.40;0.97;;;9.10;77.50;;;;;;4973985;28;20465;-75
2023/01/09 13:14:47;;;;;;;1.77;0.97;;;9.00;78.10;;;;;;4973845;28;20481;-76
2023/01/09 13:17:19;;;;;;;3.43;1.00;;;8.90;80.80;;;;;;4976762;28;20461;-75
2023/01/09 13:19:46;;;;;;;2.93;1.03;;;8.80;81.00;;;;;;4976938;28;20434;-75
2023/01/09 13:22:16;;;;;;;2.37;0.90;;;8.70;81.50;;;;;;4976867;28;20450;-75
2023/01/09 13:25:07;;;;;;;3.73;1.10;;;8.60;82.10;;;;;;4976877;28;20478;-76
2023/01/09 13:27:38;;;;;;;2.83;0.90;;;8.50;82.70;;;;;;4976944;28;21043;-74
2023/01/09 13:30:19;;;;;;;1.70;0.70;;;8.60;83.50;;;;;;4976689;28;20481;-75
2023/01/09 13:33:00;;;;;;;2.10;1.00;;;8.80;82.40;;;;;;4976886;28;20492;-75
2023/01/09 13:35:27;;;;;;;1.80;0.80;;;8.60;82.90;;;;;;4976716;28;20438;-74
2023/01/09 13:37:55;;;;;;;2.43;0.80;;;8.50;83.50;;;;;;4976593;28;20505;-75
2023/01/09 13:40:28;;;;;;;2.07;1.00;;;8.50;83.00;;;;;;4977071;28;20454;-75
2023/01/09 13:42:57;;;;;;;1.50;0.70;;;8.70;82.80;;;;;;4978107;28;20461;-76
2023/01/09 13:45:26;;;;;;;2.20;0.73;;;9.00;81.30;;;;;;4976644;28;21007;-76
2023/01/09 13:48:26;;;;;;;1.70;0.80;;;8.80;80.80;;;;;;4976756;28;20853;-76
2023/01/09 13:50:54;;;;;;;1.60;0.80;;;8.80;80.80;;;;;;4974542;28;20939;-75
2023/01/09 13:53:47;;;;;;;1.83;0.67;;;8.80;80.70;;;;;;4976887;28;20509;-75
2023/01/09 13:56:14;;;;;;;1.40;0.63;;;8.80;81.00;;;;;;4977012;28;20431;-75
2023/01/09 13:59:01;;;;;;;1.50;0.70;;;8.70;80.80;;;;;;4976936;28;20450;-75
2023/01/09 14:01:46;;;;;;;1.53;0.80;;;8.60;80.90;;;;;;4976809;28;20442;-76
2023/01/09 14:04:42;;;;;;;1.60;0.70;;;8.60;81.00;;;;;;4976999;28;20537;-74
2023/01/09 14:07:23;;;;;;;1.60;0.80;;;8.60;81.00;;;;;;4977206;28;20582;-75
2023/01/09 14:09:55;;;;;;;1.50;0.70;;;8.50;80.10;;;;;;4976472;28;20458;-75
2023/01/09 14:12:23;;;;;;;1.63;0.70;;;8.60;80.40;;;;;;4976440;28;20927;-74
2023/01/09 14:14:53;;;;;;;1.70;0.70;;;8.60;78.70;;;;;;4976839;28;20489;-74
2023/01/09 14:17:30;;;;;;;1.40;0.60;;;8.60;78.70;;;;;;4977109;28;20463;-75
2023/01/09 14:19:59;;;;;;;1.80;0.70;;;8.70;78.70;;;;;;4976921;28;20438;-75
2023/01/09 14:22:29;;;;;;;1.60;0.60;;;8.70;77.90;;;;;;4976242;28;20865;-75
2023/01/09 14:25:02;;;;;;;1.40;0.60;;;8.60;77.90;;;;;;4975979;28;20474;-74
2023/01/09 14:28:07;;;;;;;2.07;0.70;;;8.80;78.80;;;;;;4975795;28;20439;-75
2023/01/09 14:30:39;;;;;;;1.60;0.70;;;9.20;75.80;;;;;;4976442;28;20477;-74
2023/01/09 14:33:25;;;;;;;2.00;0.80;;;9.30;75.20;;;;;;4975940;28;20917;-75
2023/01/09 14:35:58;;;;;;;2.33;0.80;;;9.40;75.40;;;;;;4976143;28;20437;-75
2023/01/09 14:38:32;;;;;;;1.60;0.80;;;9.50;74.10;;;;;;4975747;28;20947;-76
2023/01/09 14:41:06;;;;;;;1.60;0.80;;;9.60;74.30;;;;;;4975889;28;20439;-75
2023/01/09 14:43:46;;;;;;;2.00;0.90;;;9.20;74.40;;;;;;4976195;28;20512;-75
2023/01/09 14:46:16;;;;;;;1.70;0.70;;;9.20;74.00;;;;;;4976420;28;20589;-73
2023/01/09 14:48:56;;;;;;;1.60;0.70;;;9.00;75.20;;;;;;4976175;28;20431;-76
2023/01/09 14:51:25;;;;;;;2.30;0.87;;;8.80;74.90;;;;;;4976552;28;20438;-76
2023/01/09 14:53:53;;;;;;;2.03;0.77;;;8.80;75.70;;;;;;4976304;28;20474;-75
2023/01/09 14:56:30;;;;;;;3.57;1.10;;;8.80;76.00;;;;;;4975470;28;20853;-75
2023/01/09 14:59:04;;;;;;;1.60;0.80;;;8.80;75.40;;;;;;4975725;28;20793;-73
2023/01/09 15:01:32;;;;;;;2.13;1.00;;;8.90;75.40;;;;;;4977296;28;20497;-75
2023/01/09 15:04:02;;;;;;;2.00;1.00;;;9.00;76.00;;;;;;4975114;28;20860;-75
2023/01/09 15:06:33;;;;;;;1.80;0.80;;;8.80;74.70;;;;;;4975000;28;21038;-73
2023/01/09 15:09:04;;;;;;;1.87;0.87;;;8.80;75.90;;;;;;4975262;28;20438;-74
2023/01/09 15:11:33;;;;;;;2.00;1.00;;;8.90;75.70;;;;;;4975516;28;20920;-74
2023/01/09 15:14:01;;;;;;;1.60;0.80;;;8.70;75.50;;;;;;4975502;28;20485;-75
2023/01/09 15:16:29;;;;;;;2.03;1.00;;;8.70;75.40;;;;;;4975532;28;20811;-74
2023/01/09 15:18:59;;;;;;;2.70;1.10;;;8.40;75.40;;;;;;4975117;28;20466;-74
2023/01/09 15:21:29;;;;;;;2.17;0.90;;;8.30;76.00;;;;;;4975264;28;20489;-74
2023/01/09 15:24:11;;;;;;;1.50;0.70;;;8.20;75.60;;;;;;4975118;28;20482;-75
2023/01/09 15:26:40;;;;;;;1.80;0.90;;;8.20;76.70;;;;;;4975539;28;20474;-74
2023/01/09 15:29:16;;;;;;;1.60;0.70;;;8.10;77.00;;;;;;4975362;28;20505;-75
2023/01/09 15:31:44;;;;;;;3.20;0.83;;;8.10;77.50;;;;;;4975665;28;20438;-75
2023/01/09 15:34:17;;;;;;;1.77;0.83;;;8.00;78.00;;;;;;4975132;28;21010;-74
2023/01/09 15:36:47;;;;;;;1.43;0.60;;;8.00;78.40;;;;;;4975785;28;20431;-75
2023/01/09 15:39:18;;;;;;;1.50;0.70;;;7.80;79.40;;;;;;4974874;28;21002;-74
2023/01/09 15:44:35;;;;;;;1.70;0.70;;;7.90;79.50;;;;;;4975001;28;20461;-75
2023/01/09 15:47:03;;;;;;;1.83;0.70;;;7.90;79.90;;;;;;4975491;28;20477;-75
2023/01/09 15:49:31;;;;;;;1.50;0.60;;;7.90;79.50;;;;;;4975058;28;20974;-75
2023/01/09 15:51:58;;;;;;;1.70;0.70;;;7.60;81.10;;;;;;4975291;28;20450;-75
2023/01/09 15:54:29;;;;;;;1.50;0.70;;;7.50;80.70;;;;;;4975139;28;20470;-75
2023/01/09 15:57:32;;;;;;;1.40;0.60;;;7.30;81.40;;;;;;4975147;28;20426;-74
2023/01/09 16:00:44;;;;;;;1.80;0.80;;;7.20;81.20;;;;;;4975409;28;20480;-75
2023/01/09 16:03:19;;;;;;;1.40;0.60;;;7.40;81.60;;;;;;4975669;28;20536;-75
2023/01/09 16:05:49;;;;;;;1.70;0.70;;;7.20;81.10;;;;;;4974765;28;20936;-75
2023/01/09 16:08:25;;;;;;;1.60;0.80;;;7.20;81.70;;;;;;4974990;28;20458;-75
2023/01/09 16:10:54;;;;;;;1.70;0.80;;;7.30;81.40;;;;;;4974766;28;20453;-75
2023/01/09 16:15:54;;;;;;;1.40;0.60;;;7.00;81.30;;;;;;4992272;28;20466;-70
2023/01/09 16:18:23;;;;;;;2.07;0.83;;;7.00;82.10;;;;;;4993983;28;20445;-73
2023/01/09 16:21:00;;;;;;;1.60;0.80;;;7.00;82.10;;;;;;4993763;28;20450;-71
2023/01/09 16:23:31;;;;;;;1.70;0.90;;;7.20;81.50;;;;;;4993747;28;20426;-71
2023/01/09 16:26:11;;;;;;;1.90;0.90;;;7.10;80.90;;;;;;4993472;28;21045;-72
2023/01/09 16:28:39;;;;;;;1.50;0.70;;;7.00;81.30;;;;;;4993773;28;20422;-72
2023/01/09 16:31:19;;;;;;;1.80;0.80;;;6.90;82.30;;;;;;4993577;28;20449;-67
2023/01/09 16:33:50;;;;;;;1.60;0.90;;;6.90;82.70;;;;;;4993731;28;20480;-70
2023/01/09 16:36:17;;;;;;;1.50;0.70;;;6.90;82.90;;;;;;4993715;28;20440;-69
2023/01/09 16:38:44;;;;;;;1.60;0.70;;;6.80;82.00;;;;;;4993646;28;20865;-70
2023/01/09 16:43:59;;;;;;;1.70;0.80;;;6.60;83.70;;;;;;4993467;28;21058;-70
2023/01/09 16:46:27;;;;;;;1.70;0.80;;;6.60;84.40;;;;;;4993452;28;20477;-70
2023/01/09 16:48:54;;;;;;;1.73;0.83;;;6.50;83.80;;;;;;4993430;28;20540;-70
2023/01/09 16:51:22;;;;;;;1.60;0.70;;;6.50;84.40;;;;;;4996871;28;20504;-70
2023/01/09 16:53:49;;;;;;;1.57;0.83;;;6.40;84.30;;;;;;4997078;28;20465;-70
2023/01/09 16:56:20;;;;;;;1.60;0.70;;;6.30;85.10;;;;;;4996773;28;20951;-71
2023/01/09 16:58:48;;;;;;;1.60;0.70;;;6.30;85.10;;;;;;4997187;28;20437;-70
2023/01/09 17:01:15;;;;;;;2.00;0.83;;;6.30;85.30;;;;;;4997052;28;20444;-70
2023/01/09 17:03:43;;;;;;;1.60;0.80;;;6.30;85.50;;;;;;4996647;28;20989;-70
2023/01/09 17:06:15;;;;;;;1.70;0.70;;;6.30;85.10;;;;;;4996867;28;20491;-71
2023/01/09 17:08:42;;;;;;;1.57;0.70;;;6.50;84.40;;;;;;4996847;28;20445;-71
2023/01/09 17:11:20;;;;;;;1.50;0.70;;;6.40;84.20;;;;;;4996802;28;20477;-70
2023/01/09 17:13:47;;;;;;;1.60;0.70;;;6.50;84.20;;;;;;4996562;28;20580;-71
2023/01/09 17:16:15;;;;;;;1.50;0.60;;;6.50;83.80;;;;;;4996827;28;20516;-71
2023/01/09 17:18:43;;;;;;;1.50;0.60;;;6.50;84.40;;;;;;4996704;28;20545;-70
2023/01/09 17:21:16;;;;;;;1.50;0.70;;;6.40;84.30;;;;;;4996353;28;20860;-71
2023/01/09 17:23:43;;;;;;;2.20;0.90;;;6.40;84.40;;;;;;4996523;28;20555;-71
2023/01/09 17:29:00;;;;;;;1.60;0.70;;;6.30;84.60;;;;;;4995675;28;20870;-71
2023/01/09 17:31:27;;;;;;;1.70;0.80;;;6.30;84.30;;;;;;4996155;28;20947;-71
2023/01/09 17:33:55;;;;;;;1.60;0.80;;;6.10;84.70;;;;;;4996318;28;20465;-71
2023/01/09 17:36:27;;;;;;;1.60;0.80;;;6.00;85.30;;;;;;4996243;28;20449;-70
2023/01/09 17:38:54;;;;;;;2.00;0.90;;;5.90;85.70;;;;;;4996679;28;20434;-70
2023/01/09 17:41:21;;;;;;;1.60;1.00;;;5.90;85.90;;;;;;4996289;28;20532;-70